»·PEaware :: N172SN KBFL-KMHV

N172SN :: KBFL-KMHV

FLIGHT INFORMATION

Flight Status: Arrived
Operator: Privately registered:
United States
More flights under this callsign
Pilot: Robert B. (45381)
Aircraft: CESSNA 172 SKYHAWK
(C172)
More flights by this aircraft type
Origin: KBFL Meadows
United States
Destination: KMHV Mojave
United States
More flights between these airports :: More routes between these airports
Route:
File this flight plan on PilotEdge
Remarks: DIRECT
Altitude:
(Current/Filed)
9,500ft
Speed:
(Current/Filed)
100kts
Departed: 15-Nov-23 05:47 PM
Arrived: 15-Nov-23 06:20 PM
Distance/Time
Traveled:
49nm/0:33
Distance/Time
To Go:
Arrived

Flight Plot

Page will automatically refresh every two minutes.


Map Options




Map Legend


Flown Route
Filed Route
Departure Airport
Arrival Airport
Navaid (VOR, NDB)
Fix

Horizontal Profiles

Position Reports

Time Latitude Longitude Heading Altitude Ground
Speed
15-Nov-23 17:08 35.428078 -119.045219 248 477ft 0kts
15-Nov-23 17:09 35.428078 -119.045219 248 477ft 0kts
15-Nov-23 17:10 35.428078 -119.045219 248 477ft 0kts
15-Nov-23 17:19 35.427744 -119.044625 316 478ft 0kts
15-Nov-23 17:20 35.427744 -119.044625 316 478ft 0kts
15-Nov-23 17:21 35.427744 -119.044625 316 478ft 0kts
15-Nov-23 17:22 35.427744 -119.044625 316 478ft 0kts
15-Nov-23 17:23 35.427744 -119.044625 316 478ft 0kts
15-Nov-23 17:24 35.427744 -119.044625 316 478ft 0kts
15-Nov-23 17:25 35.427744 -119.044625 316 478ft 0kts
15-Nov-23 17:26 35.427744 -119.044625 316 478ft 0kts
15-Nov-23 17:27 35.427744 -119.044625 316 478ft 0kts
15-Nov-23 17:28 35.427744 -119.044625 316 478ft 0kts
15-Nov-23 17:29 35.427744 -119.044625 316 478ft 0kts
15-Nov-23 17:30 35.427744 -119.044625 316 478ft 0kts
15-Nov-23 17:31 35.427744 -119.044625 316 478ft 0kts
15-Nov-23 17:32 35.427744 -119.044625 316 478ft 0kts
15-Nov-23 17:33 35.427744 -119.044625 316 478ft 0kts
15-Nov-23 17:34 35.427744 -119.044625 316 478ft 0kts
15-Nov-23 17:35 35.427744 -119.044625 316 478ft 0kts
15-Nov-23 17:36 35.427744 -119.044625 316 478ft 0kts
15-Nov-23 17:37 35.427744 -119.044625 316 478ft 0kts
15-Nov-23 17:38 35.427912 -119.045731 254 479ft 8kts
15-Nov-23 17:39 35.429324 -119.048619 313 483ft 18kts
15-Nov-23 17:40 35.434822 -119.055152 314 489ft 28kts
15-Nov-23 17:41 35.440343 -119.061830 313 496ft 28kts
15-Nov-23 17:42 35.445576 -119.068133 316 509ft 25kts
15-Nov-23 17:43 35.446970 -119.070044 272 508ft 0kts
15-Nov-23 17:44 35.446970 -119.070044 272 508ft 0kts
15-Nov-23 17:45 35.446971 -119.070060 269 508ft 2kts
15-Nov-23 17:46 35.440908 -119.064564 134 585ft 80kts
15-Nov-23 17:47 35.426722 -119.042978 112 1476ft 81kts
15-Nov-23 17:48 35.417565 -119.017553 117 2331ft 79kts
15-Nov-23 17:49 35.408645 -118.995164 113 3095ft 77kts
15-Nov-23 17:50 35.402474 -118.971661 100 3829ft 75kts
15-Nov-23 17:51 35.391936 -118.944180 118 4436ft 91kts
15-Nov-23 17:52 35.378481 -118.917132 125 5079ft 93kts
15-Nov-23 17:53 35.365193 -118.889505 124 5705ft 94kts
15-Nov-23 17:54 35.351150 -118.862147 121 6333ft 89kts
15-Nov-23 17:55 35.339695 -118.834482 120 6908ft 89kts
15-Nov-23 17:56 35.325933 -118.807933 125 7357ft 94kts
15-Nov-23 17:57 35.312504 -118.780675 116 7769ft 94kts
15-Nov-23 17:58 35.300858 -118.752038 119 8131ft 94kts
15-Nov-23 17:59 35.288614 -118.726142 121 8513ft 83kts
15-Nov-23 18:00 35.275326 -118.702400 125 8730ft 83kts
15-Nov-23 18:01 35.264603 -118.674668 117 8860ft 89kts
15-Nov-23 18:02 35.253284 -118.647199 113 8962ft 91kts
15-Nov-23 18:03 35.241947 -118.619244 120 8931ft 93kts
15-Nov-23 18:04 35.227942 -118.591464 124 8928ft 94kts
15-Nov-23 18:05 35.214090 -118.563791 119 9093ft 96kts
15-Nov-23 18:06 35.197162 -118.534146 132 8752ft 111kts
15-Nov-23 18:07 35.178411 -118.505221 119 8383ft 109kts
15-Nov-23 18:08 35.169079 -118.470453 102 8412ft 107kts
15-Nov-23 18:09 35.161368 -118.435454 108 8673ft 107kts
15-Nov-23 18:10 35.152049 -118.400412 110 8551ft 113kts
15-Nov-23 18:11 35.140283 -118.366450 113 8138ft 109kts
15-Nov-23 18:12 35.125887 -118.334313 126 7803ft 107kts
15-Nov-23 18:13 35.103536 -118.310509 142 7363ft 107kts
15-Nov-23 18:14 35.078942 -118.290363 139 6803ft 107kts
15-Nov-23 18:15 35.059019 -118.264566 113 6153ft 105kts
15-Nov-23 18:16 35.058927 -118.229394 88 5151ft 95kts
15-Nov-23 18:17 35.059229 -118.198907 90 3993ft 85kts
15-Nov-23 18:18 35.059175 -118.171867 88 2857ft 74kts
15-Nov-23 18:19 35.058388 -118.157749 176 2766ft 0kts
15-Nov-23 18:20 35.057403 -118.158097 237 2769ft 7kts
15-Nov-23 18:21 35.057376 -118.158189 281 2769ft 0kts
15-Nov-23 18:22 35.057376 -118.158189 281 2769ft 0kts
15-Nov-23 18:23 35.057376 -118.158189 281 2769ft 0kts

Navigation Log

Ident Type
Flight plan parsing failed, navigation log unavailable